sensor_id;sensor_type;location;lat;lon;timestamp;temperature;humidity
47805;DHT22;33568;45.286;9.900;2023-12-14T00:01:38;9.50;99.90
47805;DHT22;33568;45.286;9.900;2023-12-14T00:04:06;9.50;99.90
47805;DHT22;33568;45.286;9.900;2023-12-14T00:06:33;9.50;99.90
47805;DHT22;33568;45.286;9.900;2023-12-14T00:08:59;9.40;99.90
47805;DHT22;33568;45.286;9.900;2023-12-14T00:11:25;9.40;99.90
47805;DHT22;33568;45.286;9.900;2023-12-14T00:13:52;9.40;99.90
47805;DHT22;33568;45.286;9.900;2023-12-14T00:16:18;9.40;99.90
47805;DHT22;33568;45.286;9.900;2023-12-14T00:18:44;9.40;99.90
47805;DHT22;33568;45.286;9.900;2023-12-14T00:21:11;9.40;99.90
47805;DHT22;33568;45.286;9.900;2023-12-14T00:23:37;9.40;99.90
47805;DHT22;33568;45.286;9.900;2023-12-14T00:26:04;9.40;99.90
47805;DHT22;33568;45.286;9.900;2023-12-14T00:28:30;9.30;99.90
47805;DHT22;33568;45.286;9.900;2023-12-14T00:30:56;9.30;99.90
47805;DHT22;33568;45.286;9.900;2023-12-14T00:33:23;9.30;99.90
47805;DHT22;33568;45.286;9.900;2023-12-14T00:35:49;9.30;99.90
47805;DHT22;33568;45.286;9.900;2023-12-14T00:38:15;9.30;99.90
47805;DHT22;33568;45.286;9.900;2023-12-14T00:40:42;9.30;99.90
47805;DHT22;33568;45.286;9.900;2023-12-14T00:43:08;9.20;99.90
47805;DHT22;33568;45.286;9.900;2023-12-14T00:45:35;9.30;99.90
47805;DHT22;33568;45.286;9.900;2023-12-14T00:48:01;9.20;99.90
47805;DHT22;33568;45.286;9.900;2023-12-14T00:50:27;9.20;99.90
47805;DHT22;33568;45.286;9.900;2023-12-14T00:52:54;9.20;99.90
47805;DHT22;33568;45.286;9.900;2023-12-14T00:55:20;9.20;99.90
47805;DHT22;33568;45.286;9.900;2023-12-14T00:57:46;9.20;99.90
47805;DHT22;33568;45.286;9.900;2023-12-14T01:00:13;9.30;99.90
47805;DHT22;33568;45.286;9.900;2023-12-14T01:02:40;9.30;99.90
47805;DHT22;33568;45.286;9.900;2023-12-14T01:05:07;9.30;99.90
47805;DHT22;33568;45.286;9.900;2023-12-14T01:07:33;9.30;99.90
47805;DHT22;33568;45.286;9.900;2023-12-14T01:09:59;9.30;99.90
47805;DHT22;33568;45.286;9.900;2023-12-14T01:12:26;9.30;99.90
47805;DHT22;33568;45.286;9.900;2023-12-14T01:14:52;9.20;99.90
47805;DHT22;33568;45.286;9.900;2023-12-14T01:17:18;9.20;99.90
47805;DHT22;33568;45.286;9.900;2023-12-14T01:19:45;9.10;99.90
47805;DHT22;33568;45.286;9.900;2023-12-14T01:22:11;9.10;99.90
47805;DHT22;33568;45.286;9.900;2023-12-14T01:24:38;9.10;99.90
47805;DHT22;33568;45.286;9.900;2023-12-14T01:27:04;9.10;99.90
47805;DHT22;33568;45.286;9.900;2023-12-14T01:29:31;9.10;99.90
47805;DHT22;33568;45.286;9.900;2023-12-14T01:31:57;9.10;99.90
47805;DHT22;33568;45.286;9.900;2023-12-14T01:34:23;9.10;99.90
47805;DHT22;33568;45.286;9.900;2023-12-14T01:36:50;9.10;99.90
47805;DHT22;33568;45.286;9.900;2023-12-14T01:39:16;9.20;99.90
47805;DHT22;33568;45.286;9.900;2023-12-14T01:41:42;9.20;99.90
47805;DHT22;33568;45.286;9.900;2023-12-14T01:44:09;9.30;99.90
47805;DHT22;33568;45.286;9.900;2023-12-14T01:46:35;9.30;99.90
47805;DHT22;33568;45.286;9.900;2023-12-14T01:49:01;9.40;99.90
47805;DHT22;33568;45.286;9.900;2023-12-14T01:51:28;9.40;99.90
47805;DHT22;33568;45.286;9.900;2023-12-14T01:53:54;9.30;99.90
47805;DHT22;33568;45.286;9.900;2023-12-14T01:56:21;9.40;99.90
47805;DHT22;33568;45.286;9.900;2023-12-14T01:58:47;9.40;99.90
47805;DHT22;33568;45.286;9.900;2023-12-14T02:04:06;9.40;99.90
47805;DHT22;33568;45.286;9.900;2023-12-14T02:06:33;9.50;99.90
47805;DHT22;33568;45.286;9.900;2023-12-14T02:08:59;9.50;99.90
47805;DHT22;33568;45.286;9.900;2023-12-14T02:11:26;9.50;99.90
47805;DHT22;33568;45.286;9.900;2023-12-14T02:13:52;9.40;99.90
47805;DHT22;33568;45.286;9.900;2023-12-14T02:16:18;9.40;99.90
47805;DHT22;33568;45.286;9.900;2023-12-14T02:18:45;9.50;99.90
47805;DHT22;33568;45.286;9.900;2023-12-14T02:21:11;9.50;99.90
47805;DHT22;33568;45.286;9.900;2023-12-14T02:23:45;9.50;99.90
47805;DHT22;33568;45.286;9.900;2023-12-14T02:26:13;9.60;99.90
47805;DHT22;33568;45.286;9.900;2023-12-14T02:28:39;9.60;99.90
47805;DHT22;33568;45.286;9.900;2023-12-14T02:31:06;9.60;99.90
47805;DHT22;33568;45.286;9.900;2023-12-14T02:33:33;9.50;99.90
47805;DHT22;33568;45.286;9.900;2023-12-14T02:36:00;9.50;99.90
47805;DHT22;33568;45.286;9.900;2023-12-14T02:38:26;9.50;99.90
47805;DHT22;33568;45.286;9.900;2023-12-14T02:40:53;9.50;99.90
47805;DHT22;33568;45.286;9.900;2023-12-14T02:43:19;9.50;99.90
47805;DHT22;33568;45.286;9.900;2023-12-14T02:45:45;9.50;99.90
47805;DHT22;33568;45.286;9.900;2023-12-14T02:48:12;9.40;99.90
47805;DHT22;33568;45.286;9.900;2023-12-14T02:50:38;9.50;99.90
47805;DHT22;33568;45.286;9.900;2023-12-14T02:53:05;9.40;99.90
47805;DHT22;33568;45.286;9.900;2023-12-14T02:55:31;9.50;99.90
47805;DHT22;33568;45.286;9.900;2023-12-14T02:57:58;9.40;99.90
47805;DHT22;33568;45.286;9.900;2023-12-14T03:00:24;9.40;99.90
47805;DHT22;33568;45.286;9.900;2023-12-14T03:02:52;9.50;99.90
47805;DHT22;33568;45.286;9.900;2023-12-14T03:05:18;9.50;99.90
47805;DHT22;33568;45.286;9.900;2023-12-14T03:07:45;9.40;99.90
47805;DHT22;33568;45.286;9.900;2023-12-14T03:10:11;9.40;99.90
47805;DHT22;33568;45.286;9.900;2023-12-14T03:12:37;9.40;99.90
47805;DHT22;33568;45.286;9.900;2023-12-14T03:15:04;9.40;99.90
47805;DHT22;33568;45.286;9.900;2023-12-14T03:17:31;9.40;99.90
47805;DHT22;33568;45.286;9.900;2023-12-14T03:19:57;9.40;99.90
47805;DHT22;33568;45.286;9.900;2023-12-14T03:22:24;9.50;99.90
47805;DHT22;33568;45.286;9.900;2023-12-14T03:24:50;9.50;99.90
47805;DHT22;33568;45.286;9.900;2023-12-14T03:27:16;9.50;99.90
47805;DHT22;33568;45.286;9.900;2023-12-14T03:29:43;9.60;99.90
47805;DHT22;33568;45.286;9.900;2023-12-14T03:32:09;9.50;99.90
47805;DHT22;33568;45.286;9.900;2023-12-14T03:34:35;9.60;99.90
47805;DHT22;33568;45.286;9.900;2023-12-14T03:37:02;9.50;99.90
47805;DHT22;33568;45.286;9.900;2023-12-14T03:39:28;9.50;99.90
47805;DHT22;33568;45.286;9.900;2023-12-14T03:41:54;9.40;99.90
47805;DHT22;33568;45.286;9.900;2023-12-14T03:44:21;9.50;99.90
47805;DHT22;33568;45.286;9.900;2023-12-14T03:46:47;9.50;99.90
47805;DHT22;33568;45.286;9.900;2023-12-14T03:49:14;9.50;99.90
47805;DHT22;33568;45.286;9.900;2023-12-14T03:51:40;9.50;99.90
47805;DHT22;33568;45.286;9.900;2023-12-14T03:54:07;9.60;99.90
47805;DHT22;33568;45.286;9.900;2023-12-14T03:56:33;9.60;99.90
47805;DHT22;33568;45.286;9.900;2023-12-14T03:59:00;9.60;99.90
47805;DHT22;33568;45.286;9.900;2023-12-14T04:01:26;9.50;99.90
47805;DHT22;33568;45.286;9.900;2023-12-14T04:03:52;9.60;99.90
47805;DHT22;33568;45.286;9.900;2023-12-14T04:06:18;9.60;99.90
47805;DHT22;33568;45.286;9.900;2023-12-14T04:08:45;9.60;99.90
47805;DHT22;33568;45.286;9.900;2023-12-14T04:11:12;9.70;99.90
47805;DHT22;33568;45.286;9.900;2023-12-14T04:13:38;9.70;99.90
47805;DHT22;33568;45.286;9.900;2023-12-14T04:16:05;9.70;99.90
47805;DHT22;33568;45.286;9.900;2023-12-14T04:18:31;9.60;99.90
47805;DHT22;33568;45.286;9.900;2023-12-14T04:20:58;9.70;99.90
47805;DHT22;33568;45.286;9.900;2023-12-14T04:23:24;9.70;99.90
47805;DHT22;33568;45.286;9.900;2023-12-14T04:25:51;9.70;99.90
47805;DHT22;33568;45.286;9.900;2023-12-14T04:28:17;9.70;99.90
47805;DHT22;33568;45.286;9.900;2023-12-14T04:30:43;9.80;99.90
47805;DHT22;33568;45.286;9.900;2023-12-14T04:33:10;9.80;99.90
47805;DHT22;33568;45.286;9.900;2023-12-14T04:35:37;9.80;99.90
47805;DHT22;33568;45.286;9.900;2023-12-14T04:38:04;9.80;99.90
47805;DHT22;33568;45.286;9.900;2023-12-14T04:40:30;9.70;99.90
47805;DHT22;33568;45.286;9.900;2023-12-14T04:42:57;9.70;99.90
47805;DHT22;33568;45.286;9.900;2023-12-14T04:45:23;9.60;99.90
47805;DHT22;33568;45.286;9.900;2023-12-14T04:47:50;9.70;99.90
47805;DHT22;33568;45.286;9.900;2023-12-14T04:50:16;9.70;99.90
47805;DHT22;33568;45.286;9.900;2023-12-14T04:52:42;9.70;99.90
47805;DHT22;33568;45.286;9.900;2023-12-14T04:55:09;9.60;99.90
47805;DHT22;33568;45.286;9.900;2023-12-14T04:57:35;9.70;99.90
47805;DHT22;33568;45.286;9.900;2023-12-14T05:00:04;9.70;99.90
47805;DHT22;33568;45.286;9.900;2023-12-14T05:02:32;9.80;99.90
47805;DHT22;33568;45.286;9.900;2023-12-14T05:04:58;9.80;99.90
47805;DHT22;33568;45.286;9.900;2023-12-14T05:07:25;9.80;99.90
47805;DHT22;33568;45.286;9.900;2023-12-14T05:09:51;9.80;99.90
47805;DHT22;33568;45.286;9.900;2023-12-14T05:12:17;9.80;99.90
47805;DHT22;33568;45.286;9.900;2023-12-14T05:14:44;9.80;99.90
47805;DHT22;33568;45.286;9.900;2023-12-14T05:17:10;9.90;99.90
47805;DHT22;33568;45.286;9.900;2023-12-14T05:19:37;9.90;99.90
47805;DHT22;33568;45.286;9.900;2023-12-14T05:22:03;9.90;99.90
47805;DHT22;33568;45.286;9.900;2023-12-14T05:24:30;9.90;99.90
47805;DHT22;33568;45.286;9.900;2023-12-14T05:26:56;9.80;99.90
47805;DHT22;33568;45.286;9.900;2023-12-14T05:29:22;9.90;99.90
47805;DHT22;33568;45.286;9.900;2023-12-14T05:31:49;9.90;99.90
47805;DHT22;33568;45.286;9.900;2023-12-14T05:34:16;9.90;99.90
47805;DHT22;33568;45.286;9.900;2023-12-14T05:36:42;10.00;99.90
47805;DHT22;33568;45.286;9.900;2023-12-14T05:39:09;10.00;99.90
47805;DHT22;33568;45.286;9.900;2023-12-14T05:41:41;9.90;99.90
47805;DHT22;33568;45.286;9.900;2023-12-14T05:44:08;9.90;99.90
47805;DHT22;33568;45.286;9.900;2023-12-14T05:46:34;9.90;99.90
47805;DHT22;33568;45.286;9.900;2023-12-14T05:49:02;10.00;99.90
47805;DHT22;33568;45.286;9.900;2023-12-14T05:51:31;10.00;99.90
47805;DHT22;33568;45.286;9.900;2023-12-14T05:53:58;9.90;99.90
47805;DHT22;33568;45.286;9.900;2023-12-14T05:56:27;9.90;99.90
47805;DHT22;33568;45.286;9.900;2023-12-14T05:58:54;9.70;99.90
47805;DHT22;33568;45.286;9.900;2023-12-14T06:01:20;9.80;99.90
47805;DHT22;33568;45.286;9.900;2023-12-14T06:03:47;9.80;99.90
47805;DHT22;33568;45.286;9.900;2023-12-14T06:06:13;9.70;99.90
47805;DHT22;33568;45.286;9.900;2023-12-14T06:08:40;9.70;99.90
47805;DHT22;33568;45.286;9.900;2023-12-14T06:11:07;9.70;99.90
47805;DHT22;33568;45.286;9.900;2023-12-14T06:13:35;9.70;99.90
47805;DHT22;33568;45.286;9.900;2023-12-14T06:16:01;9.70;99.90
47805;DHT22;33568;45.286;9.900;2023-12-14T06:18:28;9.70;99.90
47805;DHT22;33568;45.286;9.900;2023-12-14T06:20:56;9.70;99.90
47805;DHT22;33568;45.286;9.900;2023-12-14T06:23:22;9.70;99.90
47805;DHT22;33568;45.286;9.900;2023-12-14T06:25:49;9.70;99.90
47805;DHT22;33568;45.286;9.900;2023-12-14T06:28:15;9.70;99.90
47805;DHT22;33568;45.286;9.900;2023-12-14T06:30:41;9.60;99.90
47805;DHT22;33568;45.286;9.900;2023-12-14T06:33:08;9.70;99.90
47805;DHT22;33568;45.286;9.900;2023-12-14T06:35:34;9.70;99.90
47805;DHT22;33568;45.286;9.900;2023-12-14T06:38:01;9.70;99.90
47805;DHT22;33568;45.286;9.900;2023-12-14T06:40:27;9.70;99.90
47805;DHT22;33568;45.286;9.900;2023-12-14T06:42:53;9.70;99.90
47805;DHT22;33568;45.286;9.900;2023-12-14T06:45:20;9.60;99.90
47805;DHT22;33568;45.286;9.900;2023-12-14T06:47:46;9.60;99.90
47805;DHT22;33568;45.286;9.900;2023-12-14T06:50:13;9.60;99.90
47805;DHT22;33568;45.286;9.900;2023-12-14T06:52:40;9.50;99.90
47805;DHT22;33568;45.286;9.900;2023-12-14T06:55:06;9.50;99.90
47805;DHT22;33568;45.286;9.900;2023-12-14T06:57:33;9.50;99.90
47805;DHT22;33568;45.286;9.900;2023-12-14T06:59:59;9.50;99.90
47805;DHT22;33568;45.286;9.900;2023-12-14T07:02:26;9.50;99.90
47805;DHT22;33568;45.286;9.900;2023-12-14T07:04:52;9.50;99.90
47805;DHT22;33568;45.286;9.900;2023-12-14T07:07:19;9.40;99.90
47805;DHT22;33568;45.286;9.900;2023-12-14T07:09:45;9.40;99.90
47805;DHT22;33568;45.286;9.900;2023-12-14T07:12:12;9.50;99.90
47805;DHT22;33568;45.286;9.900;2023-12-14T07:14:39;9.50;99.90
47805;DHT22;33568;45.286;9.900;2023-12-14T07:17:06;9.50;99.90
47805;DHT22;33568;45.286;9.900;2023-12-14T07:19:32;9.50;99.90
47805;DHT22;33568;45.286;9.900;2023-12-14T07:21:59;9.50;99.90
47805;DHT22;33568;45.286;9.900;2023-12-14T07:24:25;9.50;99.90
47805;DHT22;33568;45.286;9.900;2023-12-14T07:26:52;9.50;99.90
47805;DHT22;33568;45.286;9.900;2023-12-14T07:29:18;9.40;99.90
47805;DHT22;33568;45.286;9.900;2023-12-14T07:31:44;9.40;99.90
47805;DHT22;33568;45.286;9.900;2023-12-14T07:34:11;9.40;99.90
47805;DHT22;33568;45.286;9.900;2023-12-14T07:36:37;9.40;99.90
47805;DHT22;33568;45.286;9.900;2023-12-14T07:39:04;9.40;99.90
47805;DHT22;33568;45.286;9.900;2023-12-14T07:41:32;9.50;99.90
47805;DHT22;33568;45.286;9.900;2023-12-14T07:43:58;9.50;99.90
47805;DHT22;33568;45.286;9.900;2023-12-14T07:46:24;9.40;99.90
47805;DHT22;33568;45.286;9.900;2023-12-14T07:48:51;9.40;99.90
47805;DHT22;33568;45.286;9.900;2023-12-14T07:51:17;9.50;99.90
47805;DHT22;33568;45.286;9.900;2023-12-14T07:53:43;9.50;99.90
47805;DHT22;33568;45.286;9.900;2023-12-14T07:56:12;9.40;99.90
47805;DHT22;33568;45.286;9.900;2023-12-14T07:58:39;9.40;99.90
47805;DHT22;33568;45.286;9.900;2023-12-14T08:01:05;9.40;99.90
47805;DHT22;33568;45.286;9.900;2023-12-14T08:03:32;9.30;99.90
47805;DHT22;33568;45.286;9.900;2023-12-14T08:05:58;9.30;99.90
47805;DHT22;33568;45.286;9.900;2023-12-14T08:08:25;9.30;99.90
47805;DHT22;33568;45.286;9.900;2023-12-14T08:10:51;9.40;99.90
47805;DHT22;33568;45.286;9.900;2023-12-14T08:13:18;9.40;99.90
47805;DHT22;33568;45.286;9.900;2023-12-14T08:15:44;9.40;99.90
47805;DHT22;33568;45.286;9.900;2023-12-14T08:18:11;9.40;99.90
47805;DHT22;33568;45.286;9.900;2023-12-14T08:20:37;9.50;99.90
47805;DHT22;33568;45.286;9.900;2023-12-14T08:23:04;9.50;99.90
47805;DHT22;33568;45.286;9.900;2023-12-14T08:25:30;9.50;99.90
47805;DHT22;33568;45.286;9.900;2023-12-14T08:27:57;9.60;99.90
47805;DHT22;33568;45.286;9.900;2023-12-14T08:30:23;9.60;99.90
47805;DHT22;33568;45.286;9.900;2023-12-14T08:32:50;9.50;99.90
47805;DHT22;33568;45.286;9.900;2023-12-14T08:35:16;9.50;99.90
47805;DHT22;33568;45.286;9.900;2023-12-14T08:37:42;9.40;99.90
47805;DHT22;33568;45.286;9.900;2023-12-14T08:40:29;9.40;99.90
47805;DHT22;33568;45.286;9.900;2023-12-14T08:42:55;9.40;99.90
47805;DHT22;33568;45.286;9.900;2023-12-14T08:45:21;9.40;99.90
47805;DHT22;33568;45.286;9.900;2023-12-14T08:47:49;9.40;99.90
47805;DHT22;33568;45.286;9.900;2023-12-14T08:50:15;9.40;99.90
47805;DHT22;33568;45.286;9.900;2023-12-14T08:52:42;9.40;99.90
47805;DHT22;33568;45.286;9.900;2023-12-14T08:55:08;9.30;99.90
47805;DHT22;33568;45.286;9.900;2023-12-14T08:57:35;9.40;99.90
47805;DHT22;33568;45.286;9.900;2023-12-14T09:00:02;9.50;99.90
47805;DHT22;33568;45.286;9.900;2023-12-14T09:02:31;9.50;99.90
47805;DHT22;33568;45.286;9.900;2023-12-14T09:04:57;9.40;99.90
47805;DHT22;33568;45.286;9.900;2023-12-14T09:07:24;9.40;99.90
47805;DHT22;33568;45.286;9.900;2023-12-14T09:09:50;9.40;99.90
47805;DHT22;33568;45.286;9.900;2023-12-14T09:12:17;9.40;99.90
47805;DHT22;33568;45.286;9.900;2023-12-14T09:14:43;9.40;99.90
47805;DHT22;33568;45.286;9.900;2023-12-14T09:17:10;9.30;99.90
47805;DHT22;33568;45.286;9.900;2023-12-14T09:19:36;9.40;99.90
47805;DHT22;33568;45.286;9.900;2023-12-14T09:22:02;9.40;99.90
47805;DHT22;33568;45.286;9.900;2023-12-14T09:24:29;9.40;99.90
47805;DHT22;33568;45.286;9.900;2023-12-14T09:26:55;9.40;99.90
47805;DHT22;33568;45.286;9.900;2023-12-14T09:29:22;9.40;99.90
47805;DHT22;33568;45.286;9.900;2023-12-14T09:31:48;9.50;99.90
47805;DHT22;33568;45.286;9.900;2023-12-14T09:34:15;9.50;99.90
47805;DHT22;33568;45.286;9.900;2023-12-14T09:36:41;9.50;99.90
47805;DHT22;33568;45.286;9.900;2023-12-14T09:39:07;9.50;99.90
47805;DHT22;33568;45.286;9.900;2023-12-14T09:41:37;9.60;99.90
47805;DHT22;33568;45.286;9.900;2023-12-14T09:44:05;9.50;99.90
47805;DHT22;33568;45.286;9.900;2023-12-14T09:46:37;9.50;99.90
47805;DHT22;33568;45.286;9.900;2023-12-14T09:49:04;9.50;99.90
47805;DHT22;33568;45.286;9.900;2023-12-14T09:51:31;9.50;99.90
47805;DHT22;33568;45.286;9.900;2023-12-14T09:53:57;9.60;99.90
47805;DHT22;33568;45.286;9.900;2023-12-14T09:56:25;9.50;99.90
47805;DHT22;33568;45.286;9.900;2023-12-14T09:58:52;9.50;99.90
47805;DHT22;33568;45.286;9.900;2023-12-14T10:01:22;9.60;99.90
47805;DHT22;33568;45.286;9.900;2023-12-14T10:03:52;9.60;99.90
47805;DHT22;33568;45.286;9.900;2023-12-14T10:06:33;9.50;99.90
47805;DHT22;33568;45.286;9.900;2023-12-14T10:08:59;9.50;99.90
47805;DHT22;33568;45.286;9.900;2023-12-14T10:11:26;9.50;99.90
47805;DHT22;33568;45.286;9.900;2023-12-14T10:13:52;9.50;99.90
47805;DHT22;33568;45.286;9.900;2023-12-14T10:16:32;9.50;99.90
47805;DHT22;33568;45.286;9.900;2023-12-14T10:18:59;9.40;99.90
47805;DHT22;33568;45.286;9.900;2023-12-14T10:21:27;9.40;99.90
47805;DHT22;33568;45.286;9.900;2023-12-14T10:23:57;9.50;99.90
47805;DHT22;33568;45.286;9.900;2023-12-14T10:26:24;9.40;99.90
47805;DHT22;33568;45.286;9.900;2023-12-14T10:28:52;9.40;99.90
47805;DHT22;33568;45.286;9.900;2023-12-14T10:31:19;9.40;99.90
47805;DHT22;33568;45.286;9.900;2023-12-14T10:33:46;9.50;99.90
47805;DHT22;33568;45.286;9.900;2023-12-14T10:36:13;9.50;99.90
47805;DHT22;33568;45.286;9.900;2023-12-14T10:38:43;9.50;99.90
47805;DHT22;33568;45.286;9.900;2023-12-14T10:41:09;9.60;99.90
47805;DHT22;33568;45.286;9.900;2023-12-14T10:43:37;9.60;99.90
47805;DHT22;33568;45.286;9.900;2023-12-14T10:46:09;9.60;99.90
47805;DHT22;33568;45.286;9.900;2023-12-14T10:48:36;9.60;99.90
47805;DHT22;33568;45.286;9.900;2023-12-14T10:51:03;9.70;99.90
47805;DHT22;33568;45.286;9.900;2023-12-14T10:53:32;9.70;99.90
47805;DHT22;33568;45.286;9.900;2023-12-14T10:56:00;9.80;99.90
47805;DHT22;33568;45.286;9.900;2023-12-14T10:58:48;9.80;99.90
47805;DHT22;33568;45.286;9.900;2023-12-14T11:01:24;9.80;99.90
47805;DHT22;33568;45.286;9.900;2023-12-14T11:03:55;9.90;99.90
47805;DHT22;33568;45.286;9.900;2023-12-14T11:09:22;9.90;99.90
47805;DHT22;33568;45.286;9.900;2023-12-14T11:11:57;10.00;99.90
47805;DHT22;33568;45.286;9.900;2023-12-14T11:14:28;10.00;99.90
47805;DHT22;33568;45.286;9.900;2023-12-14T11:16:56;10.10;99.90
47805;DHT22;33568;45.286;9.900;2023-12-14T11:19:29;10.00;99.90
47805;DHT22;33568;45.286;9.900;2023-12-14T11:24:41;9.90;99.90
47805;DHT22;33568;45.286;9.900;2023-12-14T11:27:08;9.90;99.90
47805;DHT22;33568;45.286;9.900;2023-12-14T11:29:39;9.90;99.90
47805;DHT22;33568;45.286;9.900;2023-12-14T11:32:07;9.90;99.90
47805;DHT22;33568;45.286;9.900;2023-12-14T11:34:34;10.00;99.90
47805;DHT22;33568;45.286;9.900;2023-12-14T11:37:00;10.10;99.90
47805;DHT22;33568;45.286;9.900;2023-12-14T11:39:30;10.10;99.90
47805;DHT22;33568;45.286;9.900;2023-12-14T11:41:59;10.20;99.90
47805;DHT22;33568;45.286;9.900;2023-12-14T11:44:26;10.30;99.90
47805;DHT22;33568;45.286;9.900;2023-12-14T11:46:52;10.30;99.90
47805;DHT22;33568;45.286;9.900;2023-12-14T11:49:18;10.30;99.90
47805;DHT22;33568;45.286;9.900;2023-12-14T11:51:51;10.30;99.90
47805;DHT22;33568;45.286;9.900;2023-12-14T11:54:18;10.30;99.90
47805;DHT22;33568;45.286;9.900;2023-12-14T11:56:49;10.30;99.90
47805;DHT22;33568;45.286;9.900;2023-12-14T11:59:16;10.40;99.90
47805;DHT22;33568;45.286;9.900;2023-12-14T12:01:54;10.40;99.90
47805;DHT22;33568;45.286;9.900;2023-12-14T12:04:24;10.40;99.90
47805;DHT22;33568;45.286;9.900;2023-12-14T12:07:04;10.40;99.90
47805;DHT22;33568;45.286;9.900;2023-12-14T12:09:38;10.40;99.90
47805;DHT22;33568;45.286;9.900;2023-12-14T12:12:10;10.50;99.90
47805;DHT22;33568;45.286;9.900;2023-12-14T12:14:38;10.50;99.90
47805;DHT22;33568;45.286;9.900;2023-12-14T12:17:06;10.60;99.90
47805;DHT22;33568;45.286;9.900;2023-12-14T12:19:34;10.60;99.90
47805;DHT22;33568;45.286;9.900;2023-12-14T12:22:01;10.70;99.90
47805;DHT22;33568;45.286;9.900;2023-12-14T12:24:28;10.80;99.90
47805;DHT22;33568;45.286;9.900;2023-12-14T12:26:54;10.80;99.90
47805;DHT22;33568;45.286;9.900;2023-12-14T12:29:24;10.80;99.90
47805;DHT22;33568;45.286;9.900;2023-12-14T12:31:50;10.90;99.90
47805;DHT22;33568;45.286;9.900;2023-12-14T12:34:18;11.00;99.90
47805;DHT22;33568;45.286;9.900;2023-12-14T12:36:45;11.00;99.90
47805;DHT22;33568;45.286;9.900;2023-12-14T12:39:12;11.10;99.90
47805;DHT22;33568;45.286;9.900;2023-12-14T12:41:38;11.10;99.90
47805;DHT22;33568;45.286;9.900;2023-12-14T12:44:05;11.10;99.90
47805;DHT22;33568;45.286;9.900;2023-12-14T12:46:33;11.20;99.90
47805;DHT22;33568;45.286;9.900;2023-12-14T12:49:01;11.30;99.90
47805;DHT22;33568;45.286;9.900;2023-12-14T12:51:28;11.40;99.90
47805;DHT22;33568;45.286;9.900;2023-12-14T12:53:56;11.50;99.90
47805;DHT22;33568;45.286;9.900;2023-12-14T12:56:24;11.60;99.90
47805;DHT22;33568;45.286;9.900;2023-12-14T12:58:50;11.60;99.90
47805;DHT22;33568;45.286;9.900;2023-12-14T13:01:21;11.70;99.90
47805;DHT22;33568;45.286;9.900;2023-12-14T13:03:53;11.80;99.90
47805;DHT22;33568;45.286;9.900;2023-12-14T13:06:21;12.00;99.90
47805;DHT22;33568;45.286;9.900;2023-12-14T13:08:48;12.20;99.90
47805;DHT22;33568;45.286;9.900;2023-12-14T13:11:14;12.30;99.90
47805;DHT22;33568;45.286;9.900;2023-12-14T13:13:41;12.40;99.90
47805;DHT22;33568;45.286;9.900;2023-12-14T13:16:07;12.40;99.90
47805;DHT22;33568;45.286;9.900;2023-12-14T13:18:34;12.30;99.90
47805;DHT22;33568;45.286;9.900;2023-12-14T13:21:00;12.10;99.90
47805;DHT22;33568;45.286;9.900;2023-12-14T13:23:27;12.10;99.90
47805;DHT22;33568;45.286;9.900;2023-12-14T13:25:53;12.20;99.90
47805;DHT22;33568;45.286;9.900;2023-12-14T13:28:19;12.20;99.90
47805;DHT22;33568;45.286;9.900;2023-12-14T13:30:46;12.20;99.90
47805;DHT22;33568;45.286;9.900;2023-12-14T13:33:12;12.30;99.90
47805;DHT22;33568;45.286;9.900;2023-12-14T13:35:38;12.40;99.90
47805;DHT22;33568;45.286;9.900;2023-12-14T13:38:05;12.50;99.90
47805;DHT22;33568;45.286;9.900;2023-12-14T13:40:31;12.50;99.90
47805;DHT22;33568;45.286;9.900;2023-12-14T13:42:58;12.40;99.90
47805;DHT22;33568;45.286;9.900;2023-12-14T13:45:26;12.30;99.90
47805;DHT22;33568;45.286;9.900;2023-12-14T13:47:55;12.30;99.90
47805;DHT22;33568;45.286;9.900;2023-12-14T13:50:22;12.20;99.90
47805;DHT22;33568;45.286;9.900;2023-12-14T13:52:50;12.20;99.90
47805;DHT22;33568;45.286;9.900;2023-12-14T13:55:18;12.20;99.90
47805;DHT22;33568;45.286;9.900;2023-12-14T13:57:45;12.20;99.90
47805;DHT22;33568;45.286;9.900;2023-12-14T14:00:20;12.00;99.90
47805;DHT22;33568;45.286;9.900;2023-12-14T14:02:48;12.00;99.90
47805;DHT22;33568;45.286;9.900;2023-12-14T14:05:14;11.90;99.90
47805;DHT22;33568;45.286;9.900;2023-12-14T14:07:41;11.80;99.90
47805;DHT22;33568;45.286;9.900;2023-12-14T14:10:07;11.80;99.90
47805;DHT22;33568;45.286;9.900;2023-12-14T14:12:37;11.60;99.90
47805;DHT22;33568;45.286;9.900;2023-12-14T14:15:04;11.60;99.90
47805;DHT22;33568;45.286;9.900;2023-12-14T14:17:31;11.60;99.90
47805;DHT22;33568;45.286;9.900;2023-12-14T14:19:57;11.60;99.90
47805;DHT22;33568;45.286;9.900;2023-12-14T14:22:24;11.60;99.90
47805;DHT22;33568;45.286;9.900;2023-12-14T14:24:50;11.60;99.90
47805;DHT22;33568;45.286;9.900;2023-12-14T14:27:19;11.60;99.90
47805;DHT22;33568;45.286;9.900;2023-12-14T14:29:45;11.60;99.90
47805;DHT22;33568;45.286;9.900;2023-12-14T14:32:12;11.50;99.90
47805;DHT22;33568;45.286;9.900;2023-12-14T14:34:38;11.50;99.90
47805;DHT22;33568;45.286;9.900;2023-12-14T14:37:04;11.60;99.90
47805;DHT22;33568;45.286;9.900;2023-12-14T14:39:31;11.50;99.90
47805;DHT22;33568;45.286;9.900;2023-12-14T14:41:58;11.50;99.90
47805;DHT22;33568;45.286;9.900;2023-12-14T14:44:24;11.40;99.90
47805;DHT22;33568;45.286;9.900;2023-12-14T14:46:51;11.20;99.90
47805;DHT22;33568;45.286;9.900;2023-12-14T14:49:18;11.20;99.90
47805;DHT22;33568;45.286;9.900;2023-12-14T14:51:44;11.20;99.90
47805;DHT22;33568;45.286;9.900;2023-12-14T14:54:11;11.20;99.90
47805;DHT22;33568;45.286;9.900;2023-12-14T14:56:37;11.20;99.90
47805;DHT22;33568;45.286;9.900;2023-12-14T14:59:07;11.00;99.90
47805;DHT22;33568;45.286;9.900;2023-12-14T15:01:35;10.90;99.90
47805;DHT22;33568;45.286;9.900;2023-12-14T15:04:02;10.90;99.90
47805;DHT22;33568;45.286;9.900;2023-12-14T15:06:28;10.90;99.90
47805;DHT22;33568;45.286;9.900;2023-12-14T15:08:55;10.90;99.90
47805;DHT22;33568;45.286;9.900;2023-12-14T15:11:21;10.80;99.90
47805;DHT22;33568;45.286;9.900;2023-12-14T15:13:50;10.70;99.90
47805;DHT22;33568;45.286;9.900;2023-12-14T15:16:17;10.60;99.90
47805;DHT22;33568;45.286;9.900;2023-12-14T15:18:45;10.60;99.90
47805;DHT22;33568;45.286;9.900;2023-12-14T15:21:11;10.60;99.90
47805;DHT22;33568;45.286;9.900;2023-12-14T15:23:38;10.50;99.90
47805;DHT22;33568;45.286;9.900;2023-12-14T15:26:05;10.50;99.90
47805;DHT22;33568;45.286;9.900;2023-12-14T15:28:34;10.50;99.90
47805;DHT22;33568;45.286;9.900;2023-12-14T15:31:00;10.40;99.90
47805;DHT22;33568;45.286;9.900;2023-12-14T15:33:27;10.40;99.90
47805;DHT22;33568;45.286;9.900;2023-12-14T15:35:53;10.30;99.90
47805;DHT22;33568;45.286;9.900;2023-12-14T15:38:20;10.30;99.90
47805;DHT22;33568;45.286;9.900;2023-12-14T15:40:46;10.20;99.90
47805;DHT22;33568;45.286;9.900;2023-12-14T15:43:12;10.10;99.90
47805;DHT22;33568;45.286;9.900;2023-12-14T15:45:40;10.10;99.90
47805;DHT22;33568;45.286;9.900;2023-12-14T15:48:06;10.00;99.90
47805;DHT22;33568;45.286;9.900;2023-12-14T15:50:33;10.00;99.90